createdAt,value
2019-03-08T00:02:40.392Z,4.23
2019-03-08T00:07:47.647Z,4.10
2019-03-08T00:12:56.717Z,3.73
2019-03-08T00:18:04.109Z,3.57
2019-03-08T00:23:11.351Z,5.63
2019-03-08T00:28:18.820Z,5.33
2019-03-08T00:33:25.974Z,5.80
2019-03-08T00:38:33.156Z,4.53
2019-03-08T00:43:40.444Z,6.00
2019-03-08T00:48:47.755Z,3.67
2019-03-08T00:53:55.024Z,3.40
2019-03-08T00:59:03.647Z,8.37
2019-03-08T01:04:11.231Z,4.77
2019-03-08T01:09:18.830Z,3.33
2019-03-08T01:14:26.510Z,4.77
2019-03-08T01:19:34.022Z,5.23
2019-03-08T01:24:41.299Z,4.90
2019-03-08T01:29:48.649Z,3.97
2019-03-08T01:34:57.182Z,3.30
2019-03-08T01:40:04.832Z,5.80
2019-03-08T01:45:12.956Z,3.77
2019-03-08T01:50:20.147Z,3.85
2019-03-08T01:55:27.411Z,6.33
2019-03-08T02:00:34.642Z,3.90
2019-03-08T02:05:41.980Z,4.03
2019-03-08T02:10:49.239Z,4.90
2019-03-08T02:15:56.909Z,3.37
2019-03-08T02:21:07.124Z,2.47
2019-03-08T02:26:13.266Z,2.80
2019-03-08T02:31:20.608Z,3.50
2019-03-08T02:36:27.998Z,6.07
2019-03-08T02:41:35.236Z,3.93
2019-03-08T02:46:43.075Z,5.27
2019-03-08T02:51:50.368Z,4.80
2019-03-08T02:56:57.503Z,1.90
2019-03-08T03:02:05.612Z,4.13
2019-03-08T03:07:12.994Z,3.65
2019-03-08T03:12:22.262Z,3.63
2019-03-08T03:17:29.454Z,3.57
2019-03-08T03:22:36.635Z,5.20
2019-03-08T03:27:44.478Z,2.90
2019-03-08T03:32:51.662Z,4.07
2019-03-08T03:37:58.959Z,4.53
2019-03-08T03:43:06.120Z,2.30
2019-03-08T03:48:13.290Z,4.27
2019-03-08T03:53:20.434Z,3.00
2019-03-08T03:58:27.634Z,4.97
2019-03-08T04:03:34.846Z,2.53
2019-03-08T04:08:42.000Z,2.40
2019-03-08T04:13:49.660Z,3.50
2019-03-08T04:18:56.805Z,6.43
2019-03-08T04:24:03.867Z,5.00
2019-03-08T04:29:10.946Z,3.07
2019-03-08T04:34:18.089Z,4.90
2019-03-08T04:39:25.243Z,3.10
2019-03-08T04:44:32.350Z,3.10
2019-03-08T04:49:39.480Z,3.50
2019-03-08T04:54:46.765Z,4.97
2019-03-08T04:59:54.156Z,6.25
2019-03-08T05:05:01.569Z,3.57
2019-03-08T05:10:10.640Z,4.20
2019-03-08T05:15:18.758Z,4.97
2019-03-08T05:20:25.947Z,5.53
2019-03-08T05:25:33.090Z,3.40
2019-03-08T05:30:40.319Z,3.67
2019-03-08T05:35:47.564Z,5.87
2019-03-08T05:40:54.701Z,8.83
2019-03-08T05:46:01.824Z,4.03
2019-03-08T05:51:10.148Z,3.77
2019-03-08T05:56:17.286Z,7.87
2019-03-08T06:01:24.456Z,6.30
2019-03-08T06:06:31.614Z,3.77
2019-03-08T06:11:38.776Z,6.50
2019-03-08T06:16:45.826Z,13.53
2019-03-08T06:21:54.294Z,6.60
2019-03-08T06:27:01.641Z,9.00
2019-03-08T06:32:08.863Z,8.30
2019-03-08T06:37:16.921Z,30.03
2019-03-08T06:42:24.590Z,8.57
2019-03-08T06:47:31.658Z,8.93
2019-03-08T06:52:39.199Z,4.57
2019-03-08T06:57:46.602Z,17.27
2019-03-08T07:02:53.759Z,6.97
2019-03-08T07:08:00.901Z,3.87
2019-03-08T07:13:09.266Z,4.50
2019-03-08T07:18:16.475Z,5.17
2019-03-08T07:23:48.704Z,1.90
2019-03-08T07:29:20.700Z,3.97
2019-03-08T07:34:47.627Z,2.57
2019-03-08T07:40:07.036Z,6.50
2019-03-08T07:45:45.271Z,4.07
2019-03-08T07:51:10.092Z,4.90
2019-03-08T07:56:36.080Z,3.50
2019-03-08T08:02:05.485Z,5.60
2019-03-08T08:07:28.890Z,2.92
2019-03-08T08:12:53.271Z,10.07
2019-03-08T08:18:19.249Z,5.77
2019-03-08T08:23:43.793Z,21.37
2019-03-08T08:29:00.754Z,6.03
2019-03-08T08:34:19.658Z,8.30
2019-03-08T08:39:41.064Z,6.93
2019-03-08T08:45:04.863Z,5.07
2019-03-08T08:50:27.539Z,4.08
2019-03-08T08:56:00.740Z,6.17
2019-03-08T09:01:25.947Z,3.90
2019-03-08T09:06:42.058Z,7.65
2019-03-08T09:12:07.386Z,7.10
2019-03-08T09:17:48.608Z,9.45
2019-03-08T09:23:17.802Z,10.80
2019-03-08T09:28:53.904Z,4.57
2019-03-08T09:34:10.718Z,3.53
2019-03-08T09:39:39.676Z,5.43
2019-03-08T09:45:00.700Z,3.63
2019-03-08T09:50:45.652Z,2.47
2019-03-08T09:56:10.448Z,1.83
2019-03-08T10:01:36.760Z,3.22
2019-03-08T10:06:52.462Z,4.30
2019-03-08T10:12:21.541Z,3.33
2019-03-08T10:17:33.774Z,13.93
2019-03-08T10:23:19.957Z,13.33
2019-03-08T10:28:51.920Z,12.50
2019-03-08T10:34:17.095Z,2.80
2019-03-08T10:39:51.939Z,18.27
2019-03-08T10:45:11.876Z,4.83
2019-03-08T10:50:40.778Z,0.80
2019-03-08T10:55:54.077Z,2.17
2019-03-08T11:01:15.768Z,3.33
2019-03-08T11:06:42.140Z,2.30
2019-03-08T11:12:20.572Z,11.03
2019-03-08T11:17:51.124Z,3.33
2019-03-08T11:23:35.377Z,5.17
2019-03-08T11:29:02.894Z,1.97
2019-03-08T11:34:38.982Z,3.77
2019-03-08T11:40:01.627Z,5.77
2019-03-08T11:45:30.173Z,12.63
2019-03-08T11:51:10.929Z,4.73
2019-03-08T11:56:41.186Z,4.70
2019-03-08T12:02:15.177Z,6.80
2019-03-08T12:07:43.957Z,4.17
2019-03-08T12:13:10.174Z,5.30
2019-03-08T12:18:42.081Z,3.73
2019-03-08T12:24:17.593Z,5.67
2019-03-08T12:29:37.576Z,2.57
2019-03-08T12:35:09.512Z,10.47
2019-03-08T12:40:42.098Z,6.87
2019-03-08T12:46:17.715Z,2.57
2019-03-08T12:51:49.522Z,4.27
2019-03-08T12:57:08.780Z,12.03
2019-03-08T13:02:48.441Z,12.88
2019-03-08T13:08:14.175Z,13.77
2019-03-08T13:13:21.542Z,16.37
2019-03-08T13:18:28.844Z,23.13
2019-03-08T13:23:36.024Z,15.50
2019-03-08T13:28:43.537Z,17.27
2019-03-08T13:33:51.307Z,18.23
2019-03-08T13:38:58.588Z,17.73
2019-03-08T13:44:07.944Z,22.07
2019-03-08T13:49:15.111Z,18.87
2019-03-08T13:54:22.459Z,21.10
2019-03-08T13:59:30.929Z,23.50
2019-03-08T14:04:38.051Z,20.40
2019-03-08T14:09:45.184Z,17.10
2019-03-08T14:14:52.704Z,22.83
2019-03-08T14:20:00.037Z,23.20
2019-03-08T14:25:07.600Z,18.83
2019-03-08T14:30:16.988Z,19.07
2019-03-08T14:35:26.021Z,15.50
2019-03-08T14:40:53.360Z,21.40
2019-03-08T14:46:11.358Z,13.23
2019-03-08T14:51:18.444Z,18.53
2019-03-08T14:56:26.164Z,9.80
2019-03-08T15:01:33.791Z,19.97
2019-03-08T15:06:40.884Z,16.67
2019-03-08T15:11:48.417Z,14.00
2019-03-08T15:16:55.539Z,17.00
2019-03-08T15:22:02.869Z,8.30
2019-03-08T15:27:10.057Z,13.93
2019-03-08T15:32:17.536Z,18.97
2019-03-08T15:37:24.658Z,14.50
2019-03-08T15:42:36.287Z,14.53
2019-03-08T15:47:41.171Z,15.10
2019-03-08T15:52:48.373Z,11.67
2019-03-08T15:57:57.960Z,17.50
2019-03-08T16:03:06.113Z,11.03
2019-03-08T16:08:16.300Z,11.40
2019-03-08T16:13:23.489Z,11.97
2019-03-08T16:18:31.846Z,14.90
2019-03-08T16:23:38.971Z,14.80
2019-03-08T16:28:46.490Z,34.23
2019-03-08T16:33:55.754Z,10.80
2019-03-08T16:39:22.736Z,13.70
2019-03-08T16:44:51.758Z,11.00
2019-03-08T16:50:07.689Z,14.87
2019-03-08T16:55:44.064Z,17.87
2019-03-08T17:01:00.952Z,10.53
2019-03-08T17:06:11.127Z,22.57
2019-03-08T17:11:40.672Z,10.77
2019-03-08T17:17:05.395Z,13.43
2019-03-08T17:22:37.738Z,24.70
2019-03-08T17:27:54.956Z,19.03
2019-03-08T17:33:26.229Z,17.87
2019-03-08T17:38:58.592Z,14.30
2019-03-08T17:44:21.526Z,17.57
2019-03-08T17:49:42.206Z,18.37
2019-03-08T17:54:58.001Z,16.57
2019-03-08T18:00:14.557Z,11.83
2019-03-08T18:05:43.593Z,14.50
2019-03-08T18:11:19.689Z,17.23
2019-03-08T18:16:37.800Z,11.87
2019-03-08T18:22:03.982Z,14.67
2019-03-08T18:27:22.340Z,12.03
2019-03-08T18:32:58.279Z,13.80
2019-03-08T18:38:26.163Z,13.77
2019-03-08T18:44:06.902Z,19.43
2019-03-08T18:49:38.852Z,28.57
2019-03-08T18:54:59.621Z,35.17
2019-03-08T19:00:25.247Z,15.67
2019-03-08T19:05:49.385Z,19.40
2019-03-08T19:11:16.630Z,15.83
2019-03-08T19:16:51.801Z,14.50
2019-03-08T19:22:26.367Z,12.30
2019-03-08T19:27:42.424Z,18.23
2019-03-08T19:33:18.486Z,18.20
2019-03-08T19:38:56.376Z,16.63
2019-03-08T19:44:40.904Z,21.77
2019-03-08T19:50:10.004Z,21.27
2019-03-08T19:55:21.608Z,28.02
2019-03-08T20:01:06.568Z,18.07
2019-03-08T20:06:32.598Z,20.53
2019-03-08T20:12:13.907Z,17.60
2019-03-08T20:17:32.520Z,16.43
2019-03-08T20:23:01.278Z,16.33
2019-03-08T20:28:39.653Z,11.50
2019-03-08T20:34:05.801Z,21.17
2019-03-08T20:39:37.748Z,11.07
2019-03-08T20:44:56.865Z,11.20
2019-03-08T20:50:08.702Z,11.67
2019-03-08T20:55:16.361Z,19.80
2019-03-08T21:00:24.506Z,16.67
2019-03-08T21:05:31.921Z,16.77
2019-03-08T21:10:39.054Z,11.30
2019-03-08T21:15:46.187Z,12.30
2019-03-08T21:20:53.571Z,11.90
2019-03-08T21:26:00.944Z,9.27
2019-03-08T21:31:09.123Z,15.53
2019-03-08T21:36:16.984Z,8.73
2019-03-08T21:41:24.115Z,8.00
2019-03-08T21:46:31.364Z,7.47
2019-03-08T21:51:38.574Z,7.70
2019-03-08T21:56:48.351Z,7.97
2019-03-08T22:01:55.660Z,8.97
2019-03-08T22:07:02.831Z,11.83
2019-03-08T22:12:10.442Z,7.53
2019-03-08T22:17:17.664Z,14.63
2019-03-08T22:22:24.952Z,11.83
2019-03-08T22:27:32.616Z,9.93
2019-03-08T22:32:39.742Z,6.77
2019-03-08T22:37:47.563Z,9.10
2019-03-08T22:42:54.811Z,6.30
2019-03-08T22:48:02.348Z,11.43
2019-03-08T22:53:11.023Z,9.93
2019-03-08T22:58:18.176Z,11.30
2019-03-08T23:03:25.786Z,12.03
2019-03-08T23:08:32.976Z,7.33
2019-03-08T23:13:40.123Z,9.50
2019-03-08T23:18:48.263Z,5.23
2019-03-08T23:23:55.501Z,11.87
2019-03-08T23:29:07.580Z,10.03
2019-03-08T23:34:14.982Z,17.03
2019-03-08T23:39:22.189Z,7.30
2019-03-08T23:44:29.836Z,9.93
2019-03-08T23:49:37.258Z,10.60
2019-03-08T23:54:44.428Z,10.47
2019-03-08T23:59:52.170Z,13.67
